createdAt,value
2024-05-09T00:00:57.113Z,75.34
2024-05-09T00:03:30.784Z,75.25
2024-05-09T00:06:05.434Z,75.15
2024-05-09T00:08:39.167Z,75.04
2024-05-09T00:11:14.368Z,75.04
2024-05-09T00:13:48.248Z,75.07
2024-05-09T00:16:21.948Z,75.14
2024-05-09T00:18:55.677Z,75.16
2024-05-09T00:21:29.033Z,75.20
2024-05-09T00:24:02.788Z,75.24
2024-05-09T00:26:36.342Z,75.25
2024-05-09T00:29:09.955Z,75.28
2024-05-09T00:31:43.426Z,75.25
2024-05-09T00:34:17.106Z,75.29
2024-05-09T00:36:50.970Z,75.25
2024-05-09T00:39:24.503Z,75.33
2024-05-09T00:41:59.607Z,75.33
2024-05-09T00:44:33.281Z,75.24
2024-05-09T00:47:07.881Z,75.34
2024-05-09T00:49:41.767Z,75.36
2024-05-09T00:52:16.950Z,75.50
2024-05-09T00:54:50.979Z,75.54
2024-05-09T00:57:25.478Z,75.54
2024-05-09T00:59:58.808Z,75.52
2024-05-09T01:02:34.089Z,75.51
2024-05-09T01:05:09.251Z,75.47
2024-05-09T01:07:44.067Z,75.47
2024-05-09T01:10:24.320Z,75.39
2024-05-09T01:12:53.533Z,75.30
2024-05-09T01:15:27.060Z,75.29
2024-05-09T01:18:02.463Z,75.22
2024-05-09T01:20:41.593Z,75.10
2024-05-09T01:23:12.682Z,75.07
2024-05-09T01:25:47.943Z,75.18
2024-05-09T01:28:22.130Z,75.18
2024-05-09T01:31:03.957Z,75.13
2024-05-09T01:33:37.752Z,75.14
2024-05-09T01:36:11.554Z,75.16
2024-05-09T01:41:25.768Z,75.07
2024-05-09T01:43:58.997Z,75.16
2024-05-09T01:46:32.342Z,75.20
2024-05-09T01:49:06.890Z,75.15
2024-05-09T01:51:40.678Z,75.24
2024-05-09T01:54:16.043Z,75.21
2024-05-09T01:56:49.819Z,75.21
2024-05-09T01:59:23.550Z,75.30
2024-05-09T02:01:57.951Z,75.21
2024-05-09T02:04:32.064Z,75.20
2024-05-09T02:07:06.486Z,75.23
2024-05-09T02:09:39.962Z,75.22
2024-05-09T02:12:13.663Z,75.15
2024-05-09T02:14:47.258Z,75.16
2024-05-09T02:17:20.995Z,75.00
2024-05-09T02:19:55.572Z,74.95
2024-05-09T02:22:29.635Z,74.89
2024-05-09T02:25:03.005Z,74.94
2024-05-09T02:27:36.622Z,74.98
2024-05-09T02:30:18.931Z,74.88
2024-05-09T02:32:47.617Z,74.67
2024-05-09T02:35:21.548Z,74.70
2024-05-09T02:37:55.388Z,74.78
2024-05-09T02:40:36.137Z,74.80
2024-05-09T02:43:03.894Z,74.69
2024-05-09T02:45:37.302Z,74.52
2024-05-09T02:48:14.103Z,74.68
2024-05-09T02:50:48.445Z,74.65
2024-05-09T02:53:22.240Z,74.18
2024-05-09T02:55:55.761Z,74.06
2024-05-09T02:58:29.342Z,74.15
2024-05-09T03:01:02.567Z,73.84
2024-05-09T03:03:36.366Z,73.56
2024-05-09T03:06:09.945Z,73.30
2024-05-09T03:08:46.543Z,73.48
2024-05-09T03:11:26.627Z,73.24
2024-05-09T03:14:00.081Z,73.40
2024-05-09T03:16:34.797Z,72.93
2024-05-09T03:19:08.300Z,72.39
2024-05-09T03:21:41.737Z,72.58
2024-05-09T03:24:15.194Z,72.43
2024-05-09T03:26:48.477Z,72.57
2024-05-09T03:32:02.538Z,72.58
2024-05-09T03:34:36.094Z,72.22
2024-05-09T03:37:09.519Z,71.78
2024-05-09T03:39:42.847Z,70.94
2024-05-09T03:42:16.134Z,71.01
2024-05-09T03:44:49.537Z,71.14
2024-05-09T03:47:23.775Z,70.72
2024-05-09T03:49:57.228Z,70.47
2024-05-09T03:52:30.594Z,70.59
2024-05-09T03:55:03.891Z,70.30
2024-05-09T03:57:37.204Z,70.43
2024-05-09T04:00:18.200Z,70.45
2024-05-09T04:02:49.427Z,70.58
2024-05-09T04:05:23.568Z,70.86
2024-05-09T04:07:57.781Z,70.47
2024-05-09T04:10:33.858Z,70.83
2024-05-09T04:13:06.780Z,70.87
2024-05-09T04:15:41.023Z,70.84
2024-05-09T04:18:14.613Z,70.46
2024-05-09T04:20:47.960Z,69.61
2024-05-09T04:23:21.380Z,69.69
2024-05-09T04:25:55.142Z,69.56
2024-05-09T04:28:31.560Z,68.89
2024-05-09T04:31:04.863Z,68.13
2024-05-09T04:33:38.351Z,68.53
2024-05-09T04:36:11.915Z,68.46
2024-05-09T04:38:45.190Z,68.72
2024-05-09T04:41:18.522Z,67.86
2024-05-09T04:43:52.138Z,67.54
2024-05-09T04:46:25.440Z,67.31
2024-05-09T04:48:58.852Z,67.18
2024-05-09T04:51:32.368Z,67.48
2024-05-09T04:54:08.431Z,67.23
2024-05-09T04:56:40.614Z,67.01
2024-05-09T04:59:14.089Z,66.87
2024-05-09T05:01:47.351Z,66.05
2024-05-09T05:04:21.100Z,65.99
2024-05-09T05:06:54.560Z,65.90
2024-05-09T05:09:27.914Z,65.52
2024-05-09T05:12:02.985Z,65.20
2024-05-09T05:14:36.496Z,64.76
2024-05-09T05:17:09.807Z,64.56
2024-05-09T05:19:43.617Z,65.17
2024-05-09T05:22:17.022Z,65.08
2024-05-09T05:24:50.322Z,65.25
2024-05-09T05:27:23.467Z,64.67
2024-05-09T05:29:56.840Z,63.62
2024-05-09T05:32:30.992Z,64.26
2024-05-09T05:35:04.967Z,64.86
2024-05-09T05:37:38.378Z,64.31
2024-05-09T05:40:20.678Z,63.35
2024-05-09T05:42:49.881Z,63.25
2024-05-09T05:45:22.976Z,62.73
2024-05-09T05:47:57.018Z,61.57
2024-05-09T05:50:35.850Z,61.63
2024-05-09T05:53:07.394Z,62.09
2024-05-09T05:55:42.875Z,62.01
2024-05-09T05:58:16.384Z,60.73
2024-05-09T06:00:49.789Z,60.65
2024-05-09T06:03:23.057Z,60.97
2024-05-09T06:05:57.208Z,60.36
2024-05-09T06:08:30.820Z,60.96
2024-05-09T06:11:04.131Z,59.90
2024-05-09T06:13:37.445Z,60.58
2024-05-09T06:16:11.179Z,59.95
2024-05-09T06:18:44.433Z,58.99
2024-05-09T06:21:20.000Z,57.83
2024-05-09T06:23:54.727Z,58.70
2024-05-09T06:26:28.208Z,59.10
2024-05-09T06:29:03.065Z,57.57
2024-05-09T06:31:41.139Z,58.18
2024-05-09T06:34:15.006Z,58.31
2024-05-09T06:36:48.704Z,58.11
2024-05-09T06:39:22.184Z,57.94
2024-05-09T06:41:55.571Z,57.76
2024-05-09T06:44:29.332Z,59.02
2024-05-09T06:47:03.065Z,57.47
2024-05-09T06:49:38.035Z,55.83
2024-05-09T06:52:11.914Z,55.07
2024-05-09T06:54:45.404Z,55.96
2024-05-09T06:57:18.920Z,55.09
2024-05-09T06:59:52.587Z,55.45
2024-05-09T07:02:26.215Z,50.72
2024-05-09T07:04:59.525Z,51.08
2024-05-09T07:07:34.626Z,49.63
2024-05-09T07:10:14.959Z,51.22
2024-05-09T07:12:44.297Z,51.99
2024-05-09T07:15:18.318Z,51.79
2024-05-09T07:17:51.750Z,52.60
2024-05-09T07:20:33.732Z,54.59
2024-05-09T07:23:00.285Z,54.41
2024-05-09T07:25:33.653Z,53.23
2024-05-09T07:28:09.643Z,51.71
2024-05-09T07:30:43.374Z,51.19
2024-05-09T07:33:20.555Z,49.98
2024-05-09T07:35:54.461Z,49.36
2024-05-09T07:38:27.922Z,48.25
2024-05-09T07:41:01.389Z,45.42
2024-05-09T07:43:34.698Z,41.98
2024-05-09T07:47:13.914Z,44.26
2024-05-09T07:53:58.279Z,46.19
2024-05-09T07:56:30.737Z,46.32
2024-05-09T07:59:04.662Z,46.29
2024-05-09T08:01:38.113Z,47.67
2024-05-09T08:04:11.732Z,41.80
2024-05-09T08:06:45.141Z,42.70
2024-05-09T08:09:21.151Z,44.06
2024-05-09T08:11:54.120Z,46.09
2024-05-09T08:14:27.523Z,47.97
2024-05-09T08:17:01.329Z,44.77
2024-05-09T08:19:36.455Z,40.51
2024-05-09T08:22:09.726Z,38.86
2024-05-09T08:24:43.715Z,33.82
2024-05-09T08:27:17.141Z,38.01
2024-05-09T08:29:50.327Z,41.14
2024-05-09T08:32:23.929Z,39.93
2024-05-09T08:34:57.447Z,38.03
2024-05-09T08:40:23.621Z,35.47
2024-05-09T08:42:52.627Z,33.92
2024-05-09T08:45:27.015Z,35.78
2024-05-09T08:48:03.659Z,37.08
2024-05-09T08:50:40.266Z,38.51
2024-05-09T08:53:15.388Z,40.97
2024-05-09T08:55:50.592Z,41.45
2024-05-09T08:58:24.978Z,39.79
2024-05-09T09:01:00.705Z,41.49
2024-05-09T09:03:37.418Z,39.39
2024-05-09T09:06:14.616Z,38.46
2024-05-09T09:08:48.923Z,39.17
2024-05-09T09:11:22.437Z,35.78
2024-05-09T09:13:57.500Z,37.25
2024-05-09T09:16:37.395Z,39.55
2024-05-09T09:19:10.909Z,40.89
2024-05-09T09:21:44.700Z,41.36
2024-05-09T09:24:17.896Z,41.17
2024-05-09T09:26:52.147Z,40.74
2024-05-09T09:29:25.767Z,40.77
2024-05-09T09:32:03.958Z,38.82
2024-05-09T09:34:37.479Z,40.18
2024-05-09T09:37:12.147Z,39.37
2024-05-09T09:39:48.906Z,39.58
2024-05-09T09:42:22.764Z,40.09
2024-05-09T09:45:04.571Z,40.09
2024-05-09T09:47:38.113Z,39.45
2024-05-09T09:50:16.917Z,39.41
2024-05-09T09:52:48.841Z,37.82
2024-05-09T09:55:24.859Z,37.07
2024-05-09T09:57:58.816Z,36.17
2024-05-09T10:00:34.221Z,35.61
2024-05-09T10:05:49.976Z,33.47
2024-05-09T10:08:25.248Z,32.93
2024-05-09T10:10:59.056Z,32.09
2024-05-09T10:13:36.391Z,33.51
2024-05-09T10:16:13.584Z,33.05
2024-05-09T10:18:46.221Z,33.46
2024-05-09T10:21:20.082Z,35.88
2024-05-09T10:24:03.877Z,37.46
2024-05-09T10:26:38.191Z,37.93
2024-05-09T10:29:15.720Z,39.87
2024-05-09T10:31:49.656Z,41.37
2024-05-09T10:34:24.375Z,40.83
2024-05-09T10:37:00.386Z,36.00
2024-05-09T10:39:38.748Z,37.82
2024-05-09T10:42:13.256Z,35.95
2024-05-09T10:44:46.312Z,37.47
2024-05-09T10:47:19.646Z,36.55
2024-05-09T10:49:53.650Z,38.53
2024-05-09T10:52:26.989Z,38.83
2024-05-09T10:55:01.645Z,36.07
2024-05-09T10:57:41.848Z,35.85
2024-05-09T11:00:23.362Z,33.27
2024-05-09T11:02:51.402Z,34.72
2024-05-09T11:05:25.275Z,35.83
2024-05-09T11:07:58.885Z,35.98
2024-05-09T11:10:34.391Z,36.66
2024-05-09T11:13:10.774Z,34.69
2024-05-09T11:15:44.319Z,32.00
2024-05-09T11:18:25.881Z,32.66
2024-05-09T11:20:59.830Z,32.17
2024-05-09T11:23:33.111Z,31.72
2024-05-09T11:26:06.945Z,31.81
2024-05-09T11:28:43.673Z,30.45
2024-05-09T11:31:17.190Z,28.09
2024-05-09T11:33:50.940Z,28.59
2024-05-09T11:36:24.184Z,29.89
2024-05-09T11:38:57.343Z,31.20
2024-05-09T11:41:31.331Z,30.38
2024-05-09T11:44:05.031Z,29.68
2024-05-09T11:46:38.407Z,29.03
2024-05-09T11:49:12.199Z,28.95
2024-05-09T11:51:45.563Z,28.92
2024-05-09T11:54:19.292Z,31.15
2024-05-09T11:56:52.386Z,32.45
2024-05-09T11:59:25.543Z,32.85
2024-05-09T12:01:58.750Z,33.49
2024-05-09T12:04:32.200Z,32.44
2024-05-09T12:07:06.249Z,30.16
2024-05-09T12:09:40.149Z,30.94
2024-05-09T12:12:13.274Z,28.74
2024-05-09T12:14:46.573Z,29.42
2024-05-09T12:17:20.250Z,31.20
2024-05-09T12:19:53.626Z,32.62
2024-05-09T12:22:26.919Z,32.75
2024-05-09T12:25:00.062Z,32.28
2024-05-09T12:27:36.421Z,32.01
2024-05-09T12:30:17.236Z,30.81
2024-05-09T12:32:46.838Z,30.68
2024-05-09T12:35:19.973Z,31.36
2024-05-09T12:37:53.702Z,30.96
2024-05-09T12:40:35.487Z,30.03
2024-05-09T12:43:02.486Z,30.52
2024-05-09T12:45:35.837Z,31.57
2024-05-09T12:48:12.379Z,30.60
2024-05-09T12:50:45.934Z,30.34
2024-05-09T12:53:19.149Z,32.37
2024-05-09T12:55:56.965Z,32.01
2024-05-09T12:58:27.833Z,30.85
2024-05-09T13:01:00.981Z,30.85
2024-05-09T13:03:34.773Z,30.25
2024-05-09T13:06:08.206Z,31.06
2024-05-09T13:08:41.508Z,29.38
2024-05-09T13:11:14.681Z,29.46
2024-05-09T13:13:48.003Z,30.87
2024-05-09T13:19:02.314Z,30.92
2024-05-09T13:21:35.692Z,31.33
2024-05-09T13:26:49.568Z,31.62
2024-05-09T13:29:22.838Z,29.64
2024-05-09T13:31:55.966Z,30.58
2024-05-09T13:34:29.288Z,30.49
2024-05-09T13:37:02.395Z,31.95
2024-05-09T13:39:35.655Z,31.45
2024-05-09T13:42:09.281Z,31.82
2024-05-09T13:44:42.620Z,32.21
2024-05-09T13:47:15.782Z,32.51
2024-05-09T13:49:49.507Z,32.41
2024-05-09T13:52:22.732Z,33.15
2024-05-09T13:54:55.925Z,33.73
2024-05-09T13:57:29.661Z,33.09
2024-05-09T14:00:03.744Z,33.04
2024-05-09T14:02:39.645Z,32.18
2024-05-09T14:05:13.209Z,32.35
2024-05-09T14:07:46.737Z,31.89
2024-05-09T14:10:25.936Z,30.86
2024-05-09T14:12:54.909Z,31.71
2024-05-09T14:15:28.176Z,31.52
2024-05-09T14:18:01.656Z,32.65
2024-05-09T14:20:35.047Z,32.91
2024-05-09T14:23:08.354Z,31.94
2024-05-09T14:25:43.395Z,30.34
2024-05-09T14:28:16.559Z,31.15
2024-05-09T14:30:49.704Z,30.73
2024-05-09T14:33:24.606Z,30.11
2024-05-09T14:35:58.100Z,30.07
2024-05-09T14:38:31.900Z,31.46
2024-05-09T14:41:05.229Z,31.50
2024-05-09T14:43:38.639Z,30.89
2024-05-09T14:46:12.092Z,29.30
2024-05-09T14:48:45.437Z,28.00
2024-05-09T14:51:20.273Z,28.06
2024-05-09T14:53:53.491Z,27.71
2024-05-09T14:56:26.744Z,28.82
2024-05-09T14:58:59.937Z,29.33
2024-05-09T15:01:33.187Z,29.51
2024-05-09T15:04:06.823Z,30.90
2024-05-09T15:06:41.244Z,31.03
2024-05-09T15:09:14.402Z,31.00
2024-05-09T15:11:47.584Z,31.50
2024-05-09T15:14:21.206Z,32.43
2024-05-09T15:16:54.462Z,33.09
2024-05-09T15:19:27.992Z,32.93
2024-05-09T15:22:01.246Z,32.87
2024-05-09T15:24:34.376Z,33.08
2024-05-09T15:27:08.075Z,33.25
2024-05-09T15:29:41.283Z,33.72
2024-05-09T15:32:14.769Z,33.64
2024-05-09T15:34:47.972Z,33.17
2024-05-09T15:37:21.235Z,33.56
2024-05-09T15:39:57.362Z,33.65
2024-05-09T15:42:30.585Z,33.13
2024-05-09T15:45:03.946Z,33.65
2024-05-09T15:47:38.015Z,32.94
2024-05-09T15:50:20.270Z,31.65
2024-05-09T15:52:46.353Z,31.70
2024-05-09T15:55:19.532Z,31.43
2024-05-09T15:57:52.644Z,32.46
2024-05-09T16:00:36.066Z,32.40
2024-05-09T16:03:02.699Z,32.92
2024-05-09T16:05:36.093Z,33.51
2024-05-09T16:08:10.430Z,32.96
2024-05-09T16:10:46.186Z,33.45
2024-05-09T16:13:20.244Z,33.80
2024-05-09T16:15:53.805Z,33.08
2024-05-09T16:18:27.282Z,33.53
2024-05-09T16:21:01.620Z,33.95
2024-05-09T16:23:36.762Z,33.64
2024-05-09T16:26:10.391Z,34.38
2024-05-09T16:28:43.597Z,34.27
2024-05-09T16:31:16.823Z,34.53
2024-05-09T16:33:50.217Z,34.91
2024-05-09T16:36:23.520Z,35.21
2024-05-09T16:38:56.640Z,35.11
2024-05-09T16:41:29.831Z,35.28
2024-05-09T16:44:04.167Z,35.53
2024-05-09T16:46:37.470Z,35.29
2024-05-09T16:49:11.266Z,35.59
2024-05-09T16:51:44.526Z,35.56
2024-05-09T16:54:17.816Z,35.89
2024-05-09T16:56:51.751Z,35.63
2024-05-09T17:02:05.450Z,35.89
2024-05-09T17:04:38.855Z,36.11
2024-05-09T17:07:12.604Z,36.19
2024-05-09T17:09:46.034Z,36.40
2024-05-09T17:12:19.347Z,36.66
2024-05-09T17:14:52.519Z,36.65
2024-05-09T17:17:25.926Z,36.72
2024-05-09T17:19:58.971Z,36.19
2024-05-09T17:22:35.258Z,36.20
2024-05-09T17:25:09.151Z,36.22
2024-05-09T17:27:42.560Z,35.63
2024-05-09T17:30:24.781Z,35.73
2024-05-09T17:32:51.359Z,36.07
2024-05-09T17:35:24.610Z,36.12
2024-05-09T17:37:58.523Z,36.45
2024-05-09T17:40:35.733Z,36.91
2024-05-09T17:43:08.861Z,36.88
2024-05-09T17:45:42.709Z,37.10
2024-05-09T17:48:16.147Z,37.32
2024-05-09T17:50:50.957Z,37.57
2024-05-09T17:53:24.537Z,37.86
2024-05-09T17:55:59.426Z,37.94
2024-05-09T17:58:33.698Z,38.13
2024-05-09T18:01:07.276Z,38.04
2024-05-09T18:03:40.710Z,38.09
2024-05-09T18:06:16.424Z,38.20
2024-05-09T18:08:49.557Z,38.32
2024-05-09T18:11:22.815Z,38.37
2024-05-09T18:13:56.382Z,38.42
2024-05-09T18:16:29.821Z,38.53
2024-05-09T18:19:03.197Z,38.67
2024-05-09T18:21:36.537Z,38.66
2024-05-09T18:24:10.214Z,38.71
2024-05-09T18:26:44.073Z,38.86
2024-05-09T18:29:21.666Z,39.04
2024-05-09T18:31:53.849Z,39.13
2024-05-09T18:34:27.122Z,39.20
2024-05-09T18:37:03.758Z,39.27
2024-05-09T18:39:35.656Z,39.44
2024-05-09T18:42:09.054Z,39.51
2024-05-09T18:44:42.259Z,39.58
2024-05-09T18:47:19.399Z,39.57
2024-05-09T18:49:51.307Z,39.73
2024-05-09T18:52:24.624Z,39.79
2024-05-09T18:54:58.000Z,39.82
2024-05-09T18:57:31.339Z,39.83
2024-05-09T19:00:05.746Z,39.99
2024-05-09T19:02:40.131Z,40.07
2024-05-09T19:05:14.222Z,40.18
2024-05-09T19:07:48.178Z,40.33
2024-05-09T19:10:23.098Z,40.44
2024-05-09T19:12:56.189Z,40.56
2024-05-09T19:15:29.501Z,40.64
2024-05-09T19:18:03.615Z,40.75
2024-05-09T19:20:37.646Z,40.82
2024-05-09T19:23:12.122Z,40.92
2024-05-09T19:25:45.645Z,41.02
2024-05-09T19:28:19.007Z,41.11
2024-05-09T19:30:52.921Z,41.15
2024-05-09T19:33:27.092Z,41.13
2024-05-09T19:36:00.929Z,41.17
2024-05-09T19:38:34.206Z,41.19
2024-05-09T19:41:07.869Z,41.25
2024-05-09T19:43:41.229Z,41.29
2024-05-09T19:46:14.501Z,41.31
2024-05-09T19:48:47.841Z,41.34
2024-05-09T19:51:21.212Z,41.34
2024-05-09T19:53:55.268Z,41.30
2024-05-09T19:56:28.546Z,41.31
2024-05-09T19:59:01.574Z,41.34
2024-05-09T20:01:34.840Z,41.31
2024-05-09T20:04:08.449Z,41.30
2024-05-09T20:06:43.526Z,41.26
2024-05-09T20:09:16.637Z,41.24
2024-05-09T20:11:49.742Z,41.27
2024-05-09T20:14:23.138Z,41.22
2024-05-09T20:16:57.211Z,41.22
2024-05-09T20:19:30.848Z,41.31
2024-05-09T20:22:04.418Z,41.32
2024-05-09T20:24:37.702Z,41.43
2024-05-09T20:27:12.344Z,41.46
2024-05-09T20:29:46.040Z,41.57
2024-05-09T20:32:19.292Z,41.67
2024-05-09T20:34:52.474Z,41.69
2024-05-09T20:37:26.007Z,41.74
2024-05-09T20:39:59.156Z,41.80
2024-05-09T20:42:34.191Z,41.79
2024-05-09T20:45:08.446Z,41.86
2024-05-09T20:47:41.707Z,41.84
2024-05-09T20:50:23.749Z,41.79
2024-05-09T20:52:49.725Z,41.73
2024-05-09T20:55:22.898Z,41.54
2024-05-09T20:57:56.181Z,41.62
2024-05-09T21:00:35.576Z,41.41
2024-05-09T21:03:04.272Z,41.38
2024-05-09T21:05:37.570Z,41.36
2024-05-09T21:08:10.967Z,41.37
2024-05-09T21:10:44.318Z,41.37
2024-05-09T21:13:17.700Z,41.33
2024-05-09T21:15:51.002Z,41.31
2024-05-09T21:18:24.456Z,41.37
2024-05-09T21:20:57.613Z,41.36
2024-05-09T21:23:30.705Z,41.28
2024-05-09T21:26:03.864Z,41.33
2024-05-09T21:28:36.901Z,41.26
2024-05-09T21:31:10.795Z,41.35
2024-05-09T21:33:44.202Z,41.36
2024-05-09T21:36:17.437Z,41.34
2024-05-09T21:38:50.621Z,41.36
2024-05-09T21:41:24.692Z,41.33
2024-05-09T21:43:57.800Z,41.39
2024-05-09T21:46:31.091Z,41.50
2024-05-09T21:49:04.488Z,41.54
2024-05-09T21:51:37.793Z,41.61
2024-05-09T21:54:11.162Z,41.60
2024-05-09T21:56:44.292Z,41.61
2024-05-09T21:59:17.377Z,41.66
2024-05-09T22:01:50.692Z,41.71
2024-05-09T22:04:24.079Z,41.70
2024-05-09T22:06:57.352Z,41.72
2024-05-09T22:09:30.514Z,41.78
2024-05-09T22:12:04.778Z,41.78
2024-05-09T22:14:38.063Z,41.75
2024-05-09T22:17:11.999Z,41.72
2024-05-09T22:19:48.278Z,41.64
2024-05-09T22:22:21.522Z,41.54
2024-05-09T22:24:55.621Z,41.48
2024-05-09T22:27:28.983Z,41.49
2024-05-09T22:30:02.920Z,41.56
2024-05-09T22:32:37.370Z,41.62
2024-05-09T22:35:10.779Z,41.66
2024-05-09T22:37:43.853Z,41.68
2024-05-09T22:40:24.459Z,41.73
2024-05-09T22:42:52.059Z,41.77
2024-05-09T22:45:25.366Z,41.75
2024-05-09T22:50:39.741Z,41.70
2024-05-09T22:53:12.878Z,41.67
2024-05-09T22:55:46.115Z,41.70
2024-05-09T22:58:19.469Z,41.61
2024-05-09T23:00:53.061Z,41.62
2024-05-09T23:03:26.517Z,41.65
2024-05-09T23:05:59.828Z,41.69
2024-05-09T23:08:33.110Z,41.60
2024-05-09T23:11:07.247Z,41.58
2024-05-09T23:13:40.565Z,41.61
2024-05-09T23:16:13.982Z,41.60
2024-05-09T23:18:47.167Z,41.53
2024-05-09T23:21:20.401Z,41.51
2024-05-09T23:23:53.447Z,41.54
2024-05-09T23:26:26.490Z,41.54
2024-05-09T23:28:59.640Z,41.67
2024-05-09T23:31:32.804Z,41.74
2024-05-09T23:34:05.975Z,41.82
2024-05-09T23:36:39.226Z,41.81
2024-05-09T23:39:12.458Z,41.83
2024-05-09T23:41:45.880Z,41.84
2024-05-09T23:44:19.425Z,41.91
2024-05-09T23:46:52.788Z,41.92
2024-05-09T23:49:25.910Z,41.98
2024-05-09T23:51:59.102Z,41.96
2024-05-09T23:54:32.227Z,41.93
2024-05-09T23:57:05.951Z,41.86
2024-05-09T23:59:38.953Z,41.92
